Time;durP1;ratioP1;P1;durP2;ratioP2;P2;SDS_P1;SDS_P2;PMS_P1;PMS_P2;Temp;Humidity;BMP_temperature;BMP_pressure;BME280_temperature;BME280_humidity;BME280_pressure;Samples;Min_cycle;Max_cycle;Signal;HPM_P1;HPM_P2
2023/01/13 00:00:03;;;;;;;0.85;0.70;;;;;;;9.57;73.90;97717.25;4980132;28;20611;-82
2023/01/13 00:02:29;;;;;;;2.92;0.65;;;;;;;9.58;73.81;97711.81;4983717;28;20142;-82
2023/01/13 00:04:54;;;;;;;1.67;0.80;;;;;;;9.62;74.53;97702.56;4981818;28;20042;-82
2023/01/13 00:07:20;;;;;;;1.25;0.75;;;;;;;9.62;74.22;97712.22;4979417;28;20513;-82
2023/01/13 00:09:46;;;;;;;2.55;0.70;;;;;;;9.58;74.36;97713.63;4978451;28;20035;-81
2023/01/13 00:12:11;;;;;;;2.80;0.80;;;;;;;9.52;74.92;97703.97;4979190;28;20061;-82
2023/01/13 00:14:37;;;;;;;3.03;0.50;;;;;;;9.42;75.21;97698.34;4978997;28;20524;-81
2023/01/13 00:17:03;;;;;;;1.63;0.65;;;;;;;9.46;74.66;97705.56;4978707;28;20034;-81
2023/01/13 00:19:29;;;;;;;0.68;0.60;;;;;;;9.45;74.91;97692.69;4978968;28;20053;-82
2023/01/13 00:21:54;;;;;;;1.70;0.80;;;;;;;9.46;75.39;97694.31;4978481;28;20117;-81
2023/01/13 00:24:20;;;;;;;1.63;0.70;;;;;;;9.53;75.50;97695.91;4977290;28;20038;-81
2023/01/13 00:26:46;;;;;;;1.48;0.80;;;;;;;9.50;76.56;97701.56;4979940;28;20041;-81
2023/01/13 00:29:11;;;;;;;2.20;0.80;;;;;;;9.49;77.52;97697.34;4984073;28;20042;-82
2023/01/13 00:31:37;;;;;;;1.60;0.68;;;;;;;9.44;77.51;97691.09;4982835;28;20039;-81
2023/01/13 00:34:03;;;;;;;1.08;0.68;;;;;;;9.45;78.09;97688.25;4981954;28;20085;-81
2023/01/13 00:36:29;;;;;;;2.03;0.68;;;;;;;9.42;79.09;97688.69;4981756;28;20033;-82
2023/01/13 00:38:55;;;;;;;2.33;0.90;;;;;;;9.44;78.75;97685.84;4983106;28;20042;-82
2023/01/13 00:41:24;;;;;;;1.63;0.82;;;;;;;9.47;80.10;97681.00;4980938;28;20030;-82
2023/01/13 00:43:50;;;;;;;1.48;0.73;;;;;;;9.38;79.63;97669.94;4982243;28;20030;-82
2023/01/13 00:46:20;;;;;;;0.80;0.80;;;;;;;9.38;78.95;97685.66;4978743;28;20042;-82
2023/01/13 00:48:46;;;;;;;0.50;0.50;;;;;;;9.36;79.10;97676.41;4980873;28;20045;-82
2023/01/13 00:51:19;;;;;;;3.28;0.85;;;;;;;9.26;77.96;97660.28;4981105;28;20050;-81
2023/01/13 00:53:50;;;;;;;1.25;0.60;;;;;;;9.24;77.92;97675.41;4980992;28;20054;-82
2023/01/13 00:56:23;;;;;;;2.47;0.70;;;;;;;9.22;78.86;97672.16;4979943;28;20046;-81
2023/01/13 00:58:50;;;;;;;1.92;0.70;;;;;;;9.24;79.19;97665.72;4981087;28;20063;-81
2023/01/13 01:01:22;;;;;;;1.75;0.65;;;;;;;9.27;78.45;97662.69;4977316;28;20031;-82
2023/01/13 01:03:50;;;;;;;0.60;0.60;;;;;;;9.26;78.67;97661.09;4978706;28;20481;-82
2023/01/13 01:06:20;;;;;;;1.88;0.82;;;;;;;9.30;77.57;97649.22;4978338;28;20039;-81
2023/01/13 01:08:46;;;;;;;2.25;0.88;;;;;;;9.30;77.48;97648.44;4979055;28;20034;-81
2023/01/13 01:11:20;;;;;;;1.05;0.70;;;;;;;9.35;77.76;97652.00;4978574;28;20051;-81
2023/01/13 01:13:47;;;;;;;1.50;0.60;;;;;;;9.38;77.38;97651.63;4977174;28;20388;-81
2023/01/13 01:16:16;;;;;;;1.58;0.68;;;;;;;9.37;76.93;97643.97;4977819;28;20035;-82
2023/01/13 01:18:45;;;;;;;0.73;0.68;;;;;;;9.41;75.89;97655.63;4977004;28;20109;-81
2023/01/13 01:21:13;;;;;;;0.52;0.52;;;;;;;9.43;75.89;97655.47;4976730;28;20050;-81
2023/01/13 01:23:40;;;;;;;2.33;0.77;;;;;;;9.39;75.54;97655.06;4976188;28;20045;-81
2023/01/13 01:26:17;;;;;;;1.27;0.50;;;;;;;9.45;75.98;97656.06;4981684;28;20026;-82
2023/01/13 01:28:44;;;;;;;0.85;0.60;;;;;;;9.43;76.24;97658.06;4981986;28;20030;-82
2023/01/13 01:31:18;;;;;;;2.17;1.20;;;;;;;9.46;76.21;97662.88;4984959;28;20107;-81
2023/01/13 01:33:46;;;;;;;1.55;0.70;;;;;;;9.50;75.83;97664.91;4981217;28;20522;-82
2023/01/13 01:36:13;;;;;;;0.82;0.70;;;;;;;9.48;75.62;97651.22;4979754;28;20042;-81
2023/01/13 01:38:39;;;;;;;2.70;0.68;;;;;;;9.49;75.37;97652.84;4981063;28;20047;-82
2023/01/13 01:41:05;;;;;;;1.35;0.60;;;;;;;9.52;74.97;97646.38;4980060;28;20042;-82
2023/01/13 01:43:58;;;;;;;2.17;1.20;;;;;;;9.49;75.57;97642.38;4980638;28;20889;-81
2023/01/13 01:46:27;;;;;;;2.92;0.70;;;;;;;9.46;75.15;97627.03;4977432;28;20108;-81
2023/01/13 01:49:01;;;;;;;0.75;0.50;;;;;;;9.52;74.27;97634.09;4980283;28;20035;-81
2023/01/13 01:51:34;;;;;;;2.72;1.15;;;;;;;9.52;73.80;97626.22;4977937;28;20045;-81
2023/01/13 01:54:05;;;;;;;0.70;0.70;;;;;;;9.56;75.07;97626.63;4979566;28;20119;-82
2023/01/13 01:56:33;;;;;;;2.03;0.60;;;;;;;9.52;74.89;97620.19;4978073;28;20043;-82
2023/01/13 01:59:01;;;;;;;1.58;0.60;;;;;;;9.57;74.32;97618.56;4978191;28;20035;-81
2023/01/13 02:01:27;;;;;;;1.00;0.70;;;;;;;9.52;74.69;97604.50;4976955;28;20054;-82
2023/01/13 02:04:04;;;;;;;1.20;0.60;;;;;;;9.56;75.17;97608.31;4978358;28;20038;-81
2023/01/13 02:06:29;;;;;;;1.40;0.88;;;;;;;9.58;74.05;97609.72;4977336;28;20062;-82
2023/01/13 02:08:57;;;;;;;1.45;0.70;;;;;;;9.54;75.12;97605.91;4978069;28;20066;-82
2023/01/13 02:14:27;;;;;;;1.42;0.70;;;;;;;9.56;74.36;97616.97;4978398;28;20084;-82
2023/01/13 02:17:20;;;;;;;1.17;0.65;;;;;;;9.53;74.37;97617.38;4978562;28;20027;-81
2023/01/13 02:20:29;;;;;;;1.88;0.70;;;;;;;9.52;74.45;97610.53;4991521;28;20038;-82
2023/01/13 02:26:34;;;;;;;1.60;0.93;;;;;;;9.64;74.45;97600.22;4985512;28;20161;-81
2023/01/13 02:32:42;;;;;;;0.73;0.60;;;;;;;9.64;74.10;97584.53;4987040;28;20093;-81
2023/01/13 02:35:23;;;;;;;0.98;0.70;;;;;;;9.64;74.24;97582.69;4983616;28;20038;-81
2023/01/13 02:37:50;;;;;;;;;;;;;;;9.60;73.81;97586.75;4982717;28;20061;-81
2023/01/13 02:40:38;;;;;;;1.13;0.63;;;;;;;9.57;74.39;97575.88;4982488;28;19948;-82
2023/01/13 02:46:31;;;;;;;1.30;0.75;;;;;;;9.58;73.81;97583.53;4980132;28;20065;-81
2023/01/13 02:49:05;;;;;;;1.45;0.65;;;;;;;9.59;73.41;97581.72;4983749;28;20047;-82
2023/01/13 02:51:33;;;;;;;0.88;0.65;;;;;;;9.65;74.42;97576.47;4981998;28;20089;-81
2023/01/13 02:54:11;;;;;;;0.73;0.70;;;;;;;9.62;74.32;97582.13;4983824;28;20030;-81
2023/01/13 02:56:43;;;;;;;1.52;0.55;;;;;;;9.62;74.10;97578.69;4982172;28;20143;-81
2023/01/13 02:59:11;;;;;;;2.40;0.70;;;;;;;9.67;74.90;97568.41;4981239;28;20069;-81
2023/01/13 03:01:37;;;;;;;0.65;0.50;;;;;;;9.67;74.35;97570.22;4980975;28;20042;-81
2023/01/13 03:04:47;;;;;;;2.00;0.65;;;;;;;9.69;74.08;97562.97;4981269;28;20430;-82
2023/01/13 03:07:55;;;;;;;0.63;0.52;;;;;;;9.68;74.12;97567.41;4980805;28;20038;-81
2023/01/13 03:10:34;;;;;;;1.15;0.50;;;;;;;9.64;73.91;97560.94;4980069;28;20047;-81
2023/01/13 03:13:50;;;;;;;3.35;0.70;;;;;;;9.65;74.82;97558.16;4980549;28;20062;-81
2023/01/13 03:16:52;;;;;;;3.05;0.60;;;;;;;9.65;75.07;97552.91;4989514;28;20046;-81
2023/01/13 03:19:44;;;;;;;1.65;0.77;;;;;;;9.61;75.33;97556.16;4979192;28;20046;-81
2023/01/13 03:22:29;;;;;;;0.95;0.60;;;;;;;9.62;75.74;97549.91;4980868;28;20411;-81
2023/01/13 03:25:14;;;;;;;2.35;0.90;;;;;;;9.60;76.28;97554.53;4983075;28;20089;-81
2023/01/13 03:27:56;;;;;;;1.58;0.65;;;;;;;9.52;76.57;97552.94;4982614;28;20038;-81
2023/01/13 03:30:39;;;;;;;1.15;0.60;;;;;;;9.50;76.20;97544.50;4982042;28;20065;-81
2023/01/13 03:33:27;;;;;;;0.98;0.70;;;;;;;9.53;76.01;97544.06;4989334;28;20124;-82
2023/01/13 03:36:00;;;;;;;1.25;0.95;;;;;;;9.55;75.56;97551.72;4987499;28;20034;-81
2023/01/13 03:38:51;;;;;;;1.85;0.70;;;;;;;9.58;75.79;97548.69;4983789;28;20042;-81
2023/01/13 03:41:26;;;;;;;1.20;0.60;;;;;;;9.62;75.66;97544.66;4981041;28;20069;-81
2023/01/13 03:44:38;;;;;;;0.65;0.55;;;;;;;9.64;75.55;97545.25;4981868;28;20042;-81
2023/01/13 03:47:32;;;;;;;1.48;0.70;;;;;;;9.61;75.01;97543.84;4977824;28;20050;-81
2023/01/13 03:50:13;;;;;;;1.55;0.68;;;;;;;9.68;75.37;97535.97;4980473;28;20041;-82
2023/01/13 03:52:59;;;;;;;1.25;0.52;;;;;;;9.65;75.75;97547.69;4981681;28;20371;-82
2023/01/13 03:55:36;;;;;;;0.98;0.95;;;;;;;9.69;75.44;97542.81;4981955;28;20081;-81
2023/01/13 03:58:15;;;;;;;0.68;0.68;;;;;;;9.71;75.71;97551.25;4980464;28;20039;-81
2023/01/13 04:00:52;;;;;;;0.57;0.57;;;;;;;9.72;75.64;97546.84;4979134;28;20044;-82
2023/01/13 04:03:35;;;;;;;1.85;1.13;;;;;;;9.74;75.11;97547.44;4980509;28;20051;-82
2023/01/13 04:06:51;;;;;;;3.78;0.77;;;;;;;9.74;74.97;97550.06;4978944;28;20069;-82
2023/01/13 04:09:20;;;;;;;1.27;0.40;;;;;;;9.72;74.51;97544.22;4979579;28;20041;-82
2023/01/13 04:12:09;;;;;;;0.60;0.60;;;;;;;9.74;75.37;97550.84;4980301;28;20102;-82
2023/01/13 04:14:36;;;;;;;1.85;0.60;;;;;;;9.79;75.63;97545.00;4979003;28;20042;-81
2023/01/13 04:17:02;;;;;;;0.85;0.50;;;;;;;9.79;75.05;97543.19;4978559;28;20061;-81
2023/01/13 04:19:27;;;;;;;1.25;0.70;;;;;;;9.78;75.41;97546.81;4979054;28;20085;-82
2023/01/13 04:21:53;;;;;;;2.78;0.70;;;;;;;9.82;75.58;97555.06;4983504;28;20834;-81
2023/01/13 04:24:18;;;;;;;1.88;0.70;;;;;;;9.75;75.41;97541.19;4983658;28;20046;-80
2023/01/13 04:26:44;;;;;;;2.20;0.60;;;;;;;9.78;75.35;97549.44;4983093;28;20505;-79
2023/01/13 04:29:09;;;;;;;1.13;0.60;;;;;;;9.80;75.14;97557.88;4983315;28;20038;-80
2023/01/13 04:31:35;;;;;;;1.35;0.70;;;;;;;9.81;75.25;97561.31;4982759;28;20030;-80
2023/01/13 04:34:01;;;;;;;1.13;0.50;;;;;;;9.77;75.67;97554.88;4983004;28;20069;-80
2023/01/13 04:36:26;;;;;;;1.73;0.60;;;;;;;9.86;75.85;97554.44;4982049;28;20031;-80
2023/01/13 04:38:53;;;;;;;3.13;0.60;;;;;;;9.82;75.63;97555.06;4978138;28;20034;-80
2023/01/13 04:41:19;;;;;;;0.57;0.57;;;;;;;9.80;76.11;97547.41;4981452;28;20097;-79
2023/01/13 04:43:45;;;;;;;1.63;0.82;;;;;;;9.78;75.07;97541.59;4980877;28;20042;-81
2023/01/13 04:46:10;;;;;;;1.45;0.70;;;;;;;9.79;75.97;97551.03;4977985;28;20085;-82
2023/01/13 04:48:36;;;;;;;2.25;0.70;;;;;;;9.80;76.38;97550.03;4980471;28;20034;-82
2023/01/13 04:51:01;;;;;;;1.25;0.60;;;;;;;9.81;75.63;97548.22;4980601;28;20034;-82
2023/01/13 04:53:27;;;;;;;0.50;0.43;;;;;;;9.87;76.25;97545.56;4978974;28;20117;-82
2023/01/13 04:55:52;;;;;;;0.50;0.50;;;;;;;9.89;75.30;97538.28;4978905;28;20046;-82
2023/01/13 04:58:17;;;;;;;1.92;0.77;;;;;;;9.91;75.65;97533.66;4979434;28;20370;-81
2023/01/13 05:00:43;;;;;;;2.05;0.68;;;;;;;9.89;75.98;97533.03;4978708;28;20076;-82
2023/01/13 05:03:09;;;;;;;0.75;0.60;;;;;;;9.90;76.20;97534.69;4979513;28;20051;-82
2023/01/13 05:05:34;;;;;;;1.05;0.50;;;;;;;9.92;76.18;97532.66;4977515;28;20046;-82
2023/01/13 05:08:00;;;;;;;0.60;0.57;;;;;;;9.98;75.42;97536.25;4977870;28;20495;-82
2023/01/13 05:10:26;;;;;;;0.70;0.50;;;;;;;10.04;75.74;97545.09;4976654;28;20034;-82
2023/01/13 05:18:25;;;;;;;0.82;0.60;;;;;;;9.96;75.94;97548.75;4976565;28;20608;-81
2023/01/13 05:20:51;;;;;;;0.52;0.52;;;;;;;10.00;76.30;97543.91;4982877;28;20042;-82
2023/01/13 05:26:01;;;;;;;2.85;0.68;;;;;;;9.95;76.09;97551.56;4981305;28;20925;-82
2023/01/13 05:28:32;;;;;;;1.00;0.43;;;;;;;9.96;76.41;97542.72;4982023;28;20109;-82
2023/01/13 05:30:58;;;;;;;0.95;0.50;;;;;;;9.96;76.82;97537.47;4980421;28;20026;-81
2023/01/13 05:33:24;;;;;;;2.22;1.60;;;;;;;9.99;76.46;97539.66;4981230;28;20125;-81
2023/01/13 05:35:49;;;;;;;3.72;1.70;;;;;;;9.99;76.92;97532.63;4980380;28;20035;-82
2023/01/13 05:38:16;;;;;;;1.38;1.02;;;;;;;9.93;77.00;97536.88;4978976;28;20043;-81
2023/01/13 05:43:28;;;;;;;1.20;0.60;;;;;;;9.92;76.67;97535.25;4979848;28;20085;-81
2023/01/13 05:46:07;;;;;;;0.82;0.60;;;;;;;9.82;77.44;97537.53;4977120;28;20084;-81
2023/01/13 05:48:37;;;;;;;3.63;0.55;;;;;;;9.86;77.44;97533.47;4979720;28;20035;-82
2023/01/13 05:51:05;;;;;;;1.60;0.63;;;;;;;9.81;77.27;97532.50;4976838;28;20041;-81
2023/01/13 05:53:32;;;;;;;1.45;0.68;;;;;;;9.81;77.32;97535.13;4977863;28;20038;-81
2023/01/13 05:55:58;;;;;;;1.52;0.77;;;;;;;9.82;77.32;97526.25;4977921;28;20039;-81
2023/01/13 05:58:26;;;;;;;0.60;0.60;;;;;;;9.84;77.17;97534.72;4976480;28;20367;-82
2023/01/13 06:00:59;;;;;;;2.13;0.70;;;;;;;9.88;77.57;97528.81;4981189;28;20107;-81
2023/01/13 06:03:24;;;;;;;1.55;0.68;;;;;;;9.87;77.52;97529.84;4981670;28;20051;-80
2023/01/13 06:05:52;;;;;;;2.90;0.80;;;;;;;9.88;77.23;97523.59;4980965;28;20113;-79
2023/01/13 06:08:17;;;;;;;1.45;0.68;;;;;;;9.84;77.48;97527.66;4980712;28;20134;-82
2023/01/13 06:10:43;;;;;;;0.60;0.60;;;;;;;9.87;77.54;97522.00;4980161;28;20039;-81
2023/01/13 06:13:09;;;;;;;0.82;0.50;;;;;;;9.87;77.13;97519.38;4980865;28;20113;-81
2023/01/13 06:15:34;;;;;;;0.80;0.80;;;;;;;9.91;77.03;97523.19;4980596;28;20034;-81
2023/01/13 06:18:05;;;;;;;2.05;1.08;;;;;;;9.90;76.98;97521.59;4983905;28;20486;-82
2023/01/13 06:20:30;;;;;;;1.98;0.95;;;;;;;9.82;76.07;97519.19;4987386;28;20038;-81
2023/01/13 06:22:57;;;;;;;2.15;0.90;;;;;;;9.81;75.80;97522.81;4985034;28;20039;-81
2023/01/13 06:25:49;;;;;;;4.22;1.20;;;;;;;9.75;75.50;97520.22;4983540;28;20489;-81
2023/01/13 06:28:15;;;;;;;1.65;0.93;;;;;;;9.73;75.41;97517.84;4988283;28;20038;-81
2023/01/13 06:30:48;;;;;;;1.50;1.00;;;;;;;9.73;76.04;97499.50;4984358;28;20499;-81
2023/01/13 06:33:21;;;;;;;3.55;1.02;;;;;;;9.72;75.16;97516.22;4981172;28;20490;-81
2023/01/13 06:35:55;;;;;;;1.00;0.90;;;;;;;9.68;75.19;97520.25;4982217;28;20042;-81
2023/01/13 06:38:27;;;;;;;2.85;0.88;;;;;;;9.64;75.25;97519.06;4982904;28;20038;-81
2023/01/13 06:40:53;;;;;;;1.95;0.80;;;;;;;9.67;75.34;97518.66;4982504;28;20058;-81
2023/01/13 06:43:19;;;;;;;1.35;0.98;;;;;;;9.64;75.54;97532.97;4982388;28;20510;-81
2023/01/13 06:45:54;;;;;;;2.05;1.00;;;;;;;9.66;74.94;97527.53;4979179;28;20054;-81
2023/01/13 06:48:26;;;;;;;1.02;0.88;;;;;;;9.63;74.91;97533.16;4989018;28;20039;-81
2023/01/13 06:50:52;;;;;;;2.50;1.00;;;;;;;9.61;74.63;97519.50;4983127;28;20038;-81
2023/01/13 06:53:19;;;;;;;3.22;1.25;;;;;;;9.62;74.67;97523.72;4979608;28;20563;-81
2023/01/13 06:55:45;;;;;;;1.67;0.60;;;;;;;9.58;74.87;97525.13;4977101;28;20089;-81
2023/01/13 06:58:11;;;;;;;1.27;0.77;;;;;;;9.59;75.24;97521.50;4981165;28;20043;-81
2023/01/13 07:00:36;;;;;;;2.65;1.00;;;;;;;9.56;75.08;97527.16;4979281;28;20126;-81
2023/01/13 07:03:12;;;;;;;0.90;0.80;;;;;;;9.63;75.01;97522.69;4980194;28;20078;-81
2023/01/13 07:05:40;;;;;;;1.92;0.88;;;;;;;9.61;74.96;97519.50;4979255;28;20038;-80
2023/01/13 07:08:07;;;;;;;2.55;1.10;;;;;;;9.64;74.99;97527.72;4980457;28;20597;-81
2023/01/13 07:10:34;;;;;;;2.17;1.15;;;;;;;9.65;74.87;97525.91;4978338;28;20469;-81
2023/01/13 07:16:01;;;;;;;2.65;1.02;;;;;;;9.65;75.13;97521.50;4981845;28;20397;-81
2023/01/13 07:18:33;;;;;;;2.38;1.10;;;;;;;9.70;74.50;97523.47;4984693;28;20039;-81
2023/01/13 07:21:12;;;;;;;3.92;1.20;;;;;;;9.69;74.88;97527.09;4982886;28;20035;-81
2023/01/13 07:23:40;;;;;;;2.33;0.90;;;;;;;9.67;74.53;97529.13;4979164;28;20039;-80
2023/01/13 07:26:08;;;;;;;1.98;0.90;;;;;;;9.64;74.78;97529.53;4983930;28;20034;-80
2023/01/13 07:28:34;;;;;;;2.38;0.90;;;;;;;9.64;74.65;97529.53;4983630;28;20125;-80
2023/01/13 07:31:00;;;;;;;2.28;0.82;;;;;;;9.68;74.16;97522.09;4980664;28;20042;-81
2023/01/13 07:33:26;;;;;;;2.20;0.90;;;;;;;9.63;74.27;97517.47;4980832;28;20046;-80
2023/01/13 07:36:02;;;;;;;1.58;0.98;;;;;;;9.64;73.99;97529.53;4982088;28;20038;-81
2023/01/13 07:38:28;;;;;;;1.95;1.00;;;;;;;9.65;74.17;97525.91;4983114;28;20052;-80
2023/01/13 07:40:54;;;;;;;1.45;1.00;;;;;;;9.66;73.56;97532.78;4981513;28;20030;-80
2023/01/13 07:43:31;;;;;;;1.98;0.95;;;;;;;9.66;73.36;97522.28;4981630;28;20112;-80
2023/01/13 07:46:00;;;;;;;3.28;1.08;;;;;;;9.65;73.59;97525.91;4978219;28;20038;-81
2023/01/13 07:48:26;;;;;;;1.48;1.10;;;;;;;9.69;73.44;97518.44;4980285;28;20046;-81
2023/01/13 07:50:53;;;;;;;2.70;1.00;;;;;;;9.70;73.21;97518.22;4978651;28;20455;-81
2023/01/13 07:53:19;;;;;;;1.67;0.90;;;;;;;9.64;73.28;97508.59;4981219;28;20045;-81
2023/01/13 07:55:44;;;;;;;3.33;1.00;;;;;;;9.55;73.46;97509.84;4979420;28;20427;-81
2023/01/13 07:58:10;;;;;;;2.17;1.40;;;;;;;9.53;73.53;97501.38;4979562;28;20062;-80
2023/01/13 08:00:39;;;;;;;2.65;1.15;;;;;;;9.57;73.36;97510.44;4979916;28;20109;-80
2023/01/13 08:03:05;;;;;;;2.28;1.20;;;;;;;9.59;73.36;97513.63;4979395;28;20081;-80
2023/01/13 08:05:30;;;;;;;1.48;1.10;;;;;;;9.53;73.20;97510.03;4981867;28;20068;-80
2023/01/13 08:07:56;;;;;;;2.20;1.10;;;;;;;9.59;73.68;97522.28;4977776;28;20031;-81
2023/01/13 08:10:21;;;;;;;4.28;1.30;;;;;;;9.63;73.85;97517.47;4976998;28;20096;-81
2023/01/13 08:15:33;;;;;;;1.20;1.00;;;;;;;9.60;73.68;97512.66;4983514;28;20093;-81
2023/01/13 08:17:59;;;;;;;1.83;1.00;;;;;;;9.62;73.62;97529.75;4981439;28;20117;-81
2023/01/13 08:20:31;;;;;;;1.73;0.80;;;;;;;9.65;73.52;97524.13;4981873;28;20046;-81
2023/01/13 08:22:58;;;;;;;2.92;1.10;;;;;;;9.67;72.97;97523.91;4981736;28;20038;-80
2023/01/13 08:25:26;;;;;;;2.38;1.02;;;;;;;9.68;73.17;97516.84;4982391;28;20050;-80
2023/01/13 08:27:51;;;;;;;1.42;0.93;;;;;;;9.73;73.14;97522.25;4982669;28;20034;-81
2023/01/13 08:30:17;;;;;;;2.00;1.08;;;;;;;9.79;73.01;97526.69;4981027;28;20087;-80
2023/01/13 08:33:29;;;;;;;4.35;1.10;;;;;;;9.82;73.17;97534.09;4979695;28;20434;-81
2023/01/13 08:35:55;;;;;;;1.35;1.00;;;;;;;9.72;73.66;97511.00;4990351;28;20053;-80
2023/01/13 08:38:21;;;;;;;1.50;0.93;;;;;;;9.87;73.20;97529.84;4980436;28;20372;-81
2023/01/13 08:40:46;;;;;;;1.98;1.10;;;;;;;9.84;73.74;97538.13;4978730;28;20041;-80
2023/01/13 08:43:12;;;;;;;2.28;1.13;;;;;;;9.87;73.13;97539.53;4979378;28;20038;-80
2023/01/13 08:45:37;;;;;;;1.85;1.10;;;;;;;9.76;73.35;97537.56;4977140;28;20046;-80
2023/01/13 08:48:04;;;;;;;1.33;1.00;;;;;;;9.70;73.71;97533.94;4978333;28;20110;-80
2023/01/13 08:50:29;;;;;;;1.90;1.20;;;;;;;9.52;75.51;97533.81;4978535;28;20129;-81
2023/01/13 08:52:55;;;;;;;1.38;0.88;;;;;;;9.52;77.13;97550.31;4980510;28;20470;-81
2023/01/13 08:55:20;;;;;;;1.83;0.93;;;;;;;9.42;78.20;97554.41;4978184;28;20042;-80
2023/01/13 08:57:46;;;;;;;1.52;0.93;;;;;;;9.45;79.75;97564.44;4977710;28;20089;-81
2023/01/13 09:00:12;;;;;;;1.02;0.90;;;;;;;9.29;80.43;97563.84;4977246;28;20073;-80
2023/01/13 09:02:38;;;;;;;2.15;1.00;;;;;;;9.08;81.03;97569.31;4978185;28;20078;-81
2023/01/13 09:05:06;;;;;;;2.40;1.10;;;;;;;9.05;82.42;97572.34;4977457;28;20034;-81
2023/01/13 09:07:34;;;;;;;1.52;1.10;;;;;;;8.86;82.53;97568.72;4977900;28;20039;-81
2023/01/13 09:10:00;;;;;;;2.13;1.00;;;;;;;8.82;84.34;97578.81;4975948;28;20030;-80
2023/01/13 09:15:12;;;;;;;4.20;1.40;;;;;;;8.94;86.70;97591.28;4982819;28;20074;-81
2023/01/13 09:17:37;;;;;;;3.25;1.50;;;;;;;8.83;87.96;97588.25;4980916;28;20042;-80
2023/01/13 09:20:04;;;;;;;2.00;1.20;;;;;;;8.72;88.81;97586.22;4980495;28;20053;-81
2023/01/13 09:22:30;;;;;;;1.50;1.02;;;;;;;8.65;90.04;97601.09;4980916;28;20465;-80
2023/01/13 09:24:55;;;;;;;4.20;1.05;;;;;;;8.62;90.25;97601.47;4979490;28;20030;-80
2023/01/13 09:27:22;;;;;;;2.28;0.90;;;;;;;8.43;91.33;97620.56;4984038;28;20043;-80
2023/01/13 09:29:48;;;;;;;1.27;1.10;;;;;;;8.35;92.40;97624.13;4976852;28;20043;-80
2023/01/13 09:32:14;;;;;;;4.70;1.90;;;;;;;8.28;93.57;97655.47;4962358;28;20049;-80
2023/01/13 09:34:59;;;;;;;2.58;1.48;;;;;;;7.84;100.00;97678.53;4971384;28;20694;-81
2023/01/13 09:37:32;;;;;;;1.95;1.50;;;;;;;7.55;100.00;97693.41;4972803;28;20069;-81
2023/01/13 09:40:07;;;;;;;2.42;1.40;;;;;;;7.29;100.00;97680.16;4971070;28;20030;-81
2023/01/13 09:46:03;;;;;;;1.40;0.90;;;;;;;7.19;100.00;97680.47;4989135;28;20046;-83
2023/01/13 09:48:50;;;;;;;1.95;1.50;;;;;;;-143.04;100.00;61139.28;4975736;28;20297;-82
2023/01/13 09:51:30;;;;;;;2.42;1.15;;;;;;;-143.04;100.00;61139.28;4969762;28;20042;-82
2023/01/13 09:54:59;;;;;;;2.38;1.05;;;;;;;7.21;100.00;97678.50;5023480;27;20127;-81
2023/01/13 09:57:29;;;;;;;2.72;0.90;;;;;;;7.23;100.00;97676.50;5010531;28;20096;-81
2023/01/13 09:59:57;;;;;;;3.67;0.93;;;;;;;7.24;100.00;97681.53;5018440;28;20038;-81
2023/01/13 10:02:47;;;;;;;1.83;1.00;;;;;;;7.30;100.00;97681.78;5017945;28;20064;-81
2023/01/13 10:05:49;;;;;;;1.17;0.65;;;;;;;7.27;100.00;97676.94;5032603;28;20041;-81
2023/01/13 10:08:39;;;;;;;2.00;0.70;;;;;;;7.32;100.00;97666.75;5016697;28;20825;-81
2023/01/13 10:14:12;;;;;;;4.10;0.80;;;;;;;7.52;100.00;97649.44;5016036;28;20034;-81
2023/01/13 10:17:32;;;;;;;2.17;0.70;;;;;;;7.55;100.00;97658.66;5016932;28;20055;-81
2023/01/13 10:20:25;;;;;;;0.70;0.70;;;;;;;7.60;100.00;97657.09;5019309;28;20041;-81
2023/01/13 10:23:33;;;;;;;2.50;0.70;;;;;;;7.63;100.00;97661.97;5018083;28;20041;-80
2023/01/13 10:26:43;;;;;;;0.90;0.70;;;;;;;7.62;99.85;97665.56;5016562;28;20026;-81
2023/01/13 10:29:27;;;;;;;4.63;0.75;;;;;;;7.61;99.71;97660.53;5017445;28;20033;-81
2023/01/13 10:31:55;;;;;;;2.85;1.35;;;;;;;7.66;99.25;97679.03;5014016;28;20405;-81
2023/01/13 10:34:22;;;;;;;1.15;0.90;;;;;;;7.66;99.50;97698.09;5013637;28;20033;-80
2023/01/13 10:37:06;;;;;;;0.77;0.73;;;;;;;7.71;99.57;97695.72;5016325;28;20045;-80
2023/01/13 10:39:44;;;;;;;2.35;0.90;;;;;;;7.73;99.20;97691.13;5017681;28;20076;-80
2023/01/13 10:42:20;;;;;;;1.25;1.20;;;;;;;7.85;99.99;97695.81;5016480;28;20037;-80
2023/01/13 10:44:59;;;;;;;1.70;0.90;;;;;;;7.90;99.67;97696.84;5016219;28;20057;-80
2023/01/13 10:47:35;;;;;;;1.85;1.00;;;;;;;7.88;99.54;97690.22;5018436;28;20112;-80
2023/01/13 10:50:09;;;;;;;2.92;0.98;;;;;;;7.92;99.96;97676.59;5015264;28;20057;-80
2023/01/13 10:52:41;;;;;;;0.93;0.80;;;;;;;8.05;98.83;97660.19;5033991;28;20037;-81
2023/01/13 10:55:36;;;;;;;2.28;0.82;;;;;;;8.14;96.90;97663.44;5018933;28;20863;-80
2023/01/13 10:58:19;;;;;;;1.42;0.80;;;;;;;8.20;94.45;97667.88;5045055;28;20065;-81
2023/01/13 11:00:46;;;;;;;1.58;0.80;;;;;;;8.21;94.26;97685.97;5014164;28;20124;-80
2023/01/13 11:03:23;;;;;;;1.65;0.80;;;;;;;8.27;92.62;97679.94;5015165;28;20034;-81
2023/01/13 11:05:54;;;;;;;0.77;0.73;;;;;;;8.37;94.96;97668.38;5004213;28;20080;-81
2023/01/13 11:08:23;;;;;;;;;;;;;;;8.39;94.89;97671.59;5004541;28;20061;-80
2023/01/13 11:10:54;;;;;;;0.90;0.80;;;;;;;8.51;91.20;97675.25;5002584;28;19914;-81
2023/01/13 11:13:34;;;;;;;0.77;0.60;;;;;;;8.42;90.22;97666.78;4999377;28;20096;-81
2023/01/13 11:16:13;;;;;;;3.33;1.05;;;;;;;8.39;90.84;97645.47;5004981;28;20889;-81
2023/01/13 11:19:10;;;;;;;3.13;1.02;;;;;;;8.54;89.74;97669.66;5036982;28;20041;-80
2023/01/13 11:22:01;;;;;;;2.05;0.90;;;;;;;8.53;89.65;97652.34;5001519;28;20576;-80
2023/01/13 11:24:44;;;;;;;1.60;0.93;;;;;;;8.58;88.99;97647.34;5002729;28;20030;-81
2023/01/13 11:27:34;;;;;;;2.00;0.93;;;;;;;8.68;88.13;97655.59;5003115;28;20108;-80
2023/01/13 11:30:08;;;;;;;1.65;0.85;;;;;;;8.72;87.82;97653.41;4999280;28;20066;-80
2023/01/13 11:33:01;;;;;;;1.75;0.85;;;;;;;8.84;87.08;97657.03;5005413;28;20026;-81
2023/01/13 11:35:32;;;;;;;1.35;0.85;;;;;;;8.96;84.97;97642.38;5000024;28;20065;-80
2023/01/13 11:38:28;;;;;;;1.40;0.73;;;;;;;9.08;84.86;97645.19;5000575;28;20026;-81
2023/01/13 11:41:05;;;;;;;2.20;1.05;;;;;;;9.26;84.97;97650.63;5003671;28;20065;-80
2023/01/13 11:44:04;;;;;;;7.85;0.98;;;;;;;9.30;83.51;97649.22;5001341;28;20136;-81
2023/01/13 11:46:31;;;;;;;1.45;0.80;;;;;;;9.24;82.53;97652.66;5001763;28;20069;-80
2023/01/13 11:48:59;;;;;;;2.00;0.90;;;;;;;9.25;83.38;97656.88;5003023;28;20493;-81
2023/01/13 11:51:47;;;;;;;0.75;0.70;;;;;;;9.29;82.00;97668.53;5003776;28;20034;-81
2023/01/13 11:54:31;;;;;;;2.65;0.80;;;;;;;9.24;81.20;97675.41;5003901;28;20125;-80
2023/01/13 11:57:27;;;;;;;1.77;0.80;;;;;;;9.14;80.25;97672.38;5003911;28;20623;-80
2023/01/13 12:00:08;;;;;;;2.63;0.80;;;;;;;9.08;80.18;97672.16;5004411;28;20034;-80
2023/01/13 12:03:07;;;;;;;1.95;1.00;;;;;;;9.18;79.38;97674.38;5002248;28;20037;-81
2023/01/13 12:05:39;;;;;;;3.72;1.25;;;;;;;9.24;81.26;97684.06;5002864;28;20077;-80
2023/01/13 12:08:08;;;;;;;1.17;0.90;;;;;;;9.19;80.18;97694.31;5003683;28;20148;-80
2023/01/13 12:11:04;;;;;;;2.30;1.23;;;;;;;9.00;77.79;97684.63;5001204;28;20049;-79
2023/01/13 12:14:00;;;;;;;1.20;0.98;;;;;;;8.88;77.65;97670.53;4996028;28;20042;-81
2023/01/13 12:16:30;;;;;;;1.35;0.95;;;;;;;8.80;77.63;97685.38;4999262;28;20042;-81
2023/01/13 12:19:26;;;;;;;2.13;1.20;;;;;;;8.74;78.26;97680.94;5000648;28;20033;-81
2023/01/13 12:22:19;;;;;;;1.85;1.08;;;;;;;8.66;77.38;97688.19;4999951;28;21018;-80
2023/01/13 12:25:01;;;;;;;3.33;1.00;;;;;;;8.67;77.97;97680.13;5003170;28;20124;-80
2023/01/13 12:27:44;;;;;;;2.25;1.00;;;;;;;8.71;77.78;97686.59;5005239;28;20616;-80
2023/01/13 12:30:22;;;;;;;2.83;1.10;;;;;;;8.70;78.73;97679.75;5002805;28;20034;-81
2023/01/13 12:32:52;;;;;;;1.80;1.00;;;;;;;8.67;77.94;97690.59;5001816;28;20037;-81
2023/01/13 12:35:38;;;;;;;1.88;1.10;;;;;;;8.66;78.27;97704.66;5003862;28;20042;-81
2023/01/13 12:38:34;;;;;;;5.95;1.27;;;;;;;8.67;77.73;97690.59;5002891;28;20425;-80
2023/01/13 12:41:22;;;;;;;3.45;1.00;;;;;;;8.68;78.32;97686.97;5004567;28;20061;-80
2023/01/13 12:46:54;;;;;;;2.80;1.10;;;;;;;8.76;78.56;97671.13;4998093;28;20141;-80
2023/01/13 12:49:33;;;;;;;3.60;1.08;;;;;;;8.71;78.55;97668.28;5004170;28;20033;-80
2023/01/13 12:52:08;;;;;;;3.42;1.05;;;;;;;8.79;80.03;97673.31;5003370;28;20045;-82
2023/01/13 12:54:39;;;;;;;2.53;1.10;;;;;;;8.82;81.00;97670.31;5000148;28;20074;-81